This is the latest recevied weather packets stored in our database for station/object N4CRH-13. If no packets are shown the sender has not sent any weather packets the latest 10 day(s).
| Time | Temp. | Humidity | Pressure | Rain* | Wind** | Luminosity | Snow |
|---|---|---|---|---|---|---|---|
| 1777661508 | 8.33° C | 57% | 1298.7 hPa | 0 mm | - | 649 W/m² | - |
| 1777661204 | 8.33° C | 54% | 1298.7 hPa | 0 mm | - | 418 W/m² | - |
| 1777660899 | 7.78° C | 51% | 1298.7 hPa | 0 mm | - | 402 W/m² | - |
| 1777660596 | 8.33° C | 53% | 1298.7 hPa | 0 mm | - | 343 W/m² | - |
| 1777660293 | 7.78° C | 53% | 1299 hPa | 0 mm | - | 300 W/m² | - |
| 1777659989 | 7.22° C | 59% | 1299.1 hPa | 0 mm | - | 286 W/m² | - |
| 1777659686 | 7.22° C | 56% | 1299.1 hPa | 0 mm | - | 257 W/m² | - |
| 1777659383 | 6.67° C | 63% | 1299.1 hPa | 0 mm | - | 234 W/m² | - |
| 1777659080 | 6.67° C | 60% | 1299.2 hPa | 0 mm | - | 224 W/m² | - |
| 1777658778 | 6.67° C | 61% | 1299.2 hPa | 0 mm | - | 197 W/m² | - |
| 1777658474 | 6.67° C | 61% | 1299.1 hPa | 0 mm | - | 178 W/m² | - |
| 1777658171 | 7.22° C | 62% | 1299.1 hPa | 0 mm | - | 170 W/m² | - |
| 1777657868 | 6.67° C | 65% | 1299.1 hPa | 0 mm | - | 163 W/m² | - |
| 1777657565 | 6.67° C | 60% | 1298.8 hPa | 0 mm | - | 151 W/m² | - |
| 1777657262 | 6.67° C | 58% | 1299 hPa | 0 mm | - | 143 W/m² | - |
| 1777656959 | 6.67° C | 58% | 1299.2 hPa | 0 mm | - | 177 W/m² | - |
| 1777656656 | 7.22° C | 58% | 1299 hPa | 0 mm | - | 249 W/m² | - |
| 1777656351 | 7.78° C | 59% | 1299.1 hPa | 0 mm | - | 320 W/m² | - |
| 1777656047 | 8.89° C | 56% | 1299.1 hPa | 0 mm | - | 1012 W/m² | - |
| 1777655743 | 7.22° C | 61% | 1299.2 hPa | 0 mm | - | 746 W/m² | - |
| 1777655440 | 7.78° C | 61% | 1299.2 hPa | 0 mm | - | 611 W/m² | - |
| 1777655137 | 6.67° C | 64% | 1299.2 hPa | 0 mm | - | 393 W/m² | - |
| 1777654834 | 6.11° C | 64% | 1299.1 hPa | 0 mm | - | 380 W/m² | - |
| 1777654532 | 6.11° C | 63% | 1299.2 hPa | 0 mm | - | 417 W/m² | - |
| 1777654229 | 6.11° C | 65% | 1299.1 hPa | 0 mm | - | 326 W/m² | - |
* Rain latest hour (hover to see other rain measurements)
** Current wind speed in m/s (hover to see current wind gust speed)